sensor_id;sensor_type;location;lat;lon;timestamp;pressure;altitude;pressure_sealevel;temperature;humidity
55347;BME280;41218;55.700;38.270;2023-04-29T00:03:15;99532.53;;;6.95;70.59
55347;BME280;41218;55.700;38.270;2023-04-29T00:08:16;99521.56;;;6.95;69.97
55347;BME280;41218;55.700;38.270;2023-04-29T00:13:17;99503.88;;;6.80;70.46
55347;BME280;41218;55.700;38.270;2023-04-29T00:18:17;99496.09;;;6.82;70.34
55347;BME280;41218;55.700;38.270;2023-04-29T00:23:18;99490.66;;;6.70;70.80
55347;BME280;41218;55.700;38.270;2023-04-29T00:28:19;99487.13;;;6.69;70.56
55347;BME280;41218;55.700;38.270;2023-04-29T00:33:19;99490.38;;;6.59;70.72
55347;BME280;41218;55.700;38.270;2023-04-29T00:38:20;99509.22;;;6.60;70.74
55347;BME280;41218;55.700;38.270;2023-04-29T00:43:20;99498.63;;;6.47;70.86
55347;BME280;41218;55.700;38.270;2023-04-29T00:48:21;99492.59;;;6.41;70.82
55347;BME280;41218;55.700;38.270;2023-04-29T00:53:22;99521.66;;;6.30;70.58
55347;BME280;41218;55.700;38.270;2023-04-29T00:58:23;99510.03;;;6.20;70.71
55347;BME280;41218;55.700;38.270;2023-04-29T01:03:30;99510.41;;;6.07;70.94
55347;BME280;41218;55.700;38.270;2023-04-29T01:09:42;99502.72;;;6.00;71.09
55347;BME280;41218;55.700;38.270;2023-04-29T01:14:08;99501.81;;;5.96;70.89
55347;BME280;41218;55.700;38.270;2023-04-29T01:19:24;99483.88;;;5.86;71.07
55347;BME280;41218;55.700;38.270;2023-04-29T01:24:32;99488.91;;;5.84;71.37
55347;BME280;41218;55.700;38.270;2023-04-29T01:29:44;99524.78;;;5.91;71.20
55347;BME280;41218;55.700;38.270;2023-04-29T01:34:59;99538.28;;;5.84;71.29
55347;BME280;41218;55.700;38.270;2023-04-29T01:40:25;99541.94;;;5.76;71.14
55347;BME280;41218;55.700;38.270;2023-04-29T01:45:26;99538.03;;;5.77;71.20
55347;BME280;41218;55.700;38.270;2023-04-29T01:50:30;99552.53;;;5.65;70.97
55347;BME280;41218;55.700;38.270;2023-04-29T01:55:31;99560.56;;;5.58;70.95
55347;BME280;41218;55.700;38.270;2023-04-29T02:00:32;99565.56;;;5.56;70.98
55347;BME280;41218;55.700;38.270;2023-04-29T02:05:32;99527.97;;;5.44;70.59
55347;BME280;41218;55.700;38.270;2023-04-29T02:10:33;99527.38;;;5.38;70.79
55347;BME280;41218;55.700;38.270;2023-04-29T02:15:34;99524.06;;;5.33;71.26
55347;BME280;41218;55.700;38.270;2023-04-29T02:20:34;99549.63;;;5.25;71.30
55347;BME280;41218;55.700;38.270;2023-04-29T02:25:35;99558.88;;;5.20;70.79
55347;BME280;41218;55.700;38.270;2023-04-29T02:30:35;99559.50;;;5.05;70.86
55347;BME280;41218;55.700;38.270;2023-04-29T02:35:36;99573.41;;;4.99;71.17
55347;BME280;41218;55.700;38.270;2023-04-29T02:40:40;99582.28;;;4.96;71.02
55347;BME280;41218;55.700;38.270;2023-04-29T02:45:41;99590.72;;;4.91;70.79
55347;BME280;41218;55.700;38.270;2023-04-29T02:50:41;99590.88;;;4.74;70.89
55347;BME280;41218;55.700;38.270;2023-04-29T02:55:42;99602.91;;;4.60;70.68
55347;BME280;41218;55.700;38.270;2023-04-29T03:00:43;99614.25;;;4.50;70.88
55347;BME280;41218;55.700;38.270;2023-04-29T03:05:43;99629.06;;;4.49;71.02
55347;BME280;41218;55.700;38.270;2023-04-29T03:10:44;99632.31;;;4.43;70.88
55347;BME280;41218;55.700;38.270;2023-04-29T03:15:45;99643.50;;;4.29;70.31
55347;BME280;41218;55.700;38.270;2023-04-29T03:20:46;99650.00;;;4.15;70.54
55347;BME280;41218;55.700;38.270;2023-04-29T03:25:46;99657.78;;;4.05;70.49
55347;BME280;41218;55.700;38.270;2023-04-29T03:30:47;99652.50;;;3.91;70.42
55347;BME280;41218;55.700;38.270;2023-04-29T03:35:47;99660.91;;;3.86;70.43
55347;BME280;41218;55.700;38.270;2023-04-29T03:40:48;99652.72;;;3.77;70.74
55347;BME280;41218;55.700;38.270;2023-04-29T03:45:48;99649.38;;;3.71;70.66
55347;BME280;41218;55.700;38.270;2023-04-29T03:50:49;99646.97;;;3.70;70.67
55347;BME280;41218;55.700;38.270;2023-04-29T03:55:50;99646.97;;;3.70;70.22
55347;BME280;41218;55.700;38.270;2023-04-29T04:00:50;99664.97;;;3.71;70.02
55347;BME280;41218;55.700;38.270;2023-04-29T04:05:51;99661.63;;;3.65;70.04
55347;BME280;41218;55.700;38.270;2023-04-29T04:10:51;99657.00;;;3.39;69.93
55347;BME280;41218;55.700;38.270;2023-04-29T04:15:52;99676.59;;;3.41;69.70
55347;BME280;41218;55.700;38.270;2023-04-29T04:20:52;99675.00;;;3.32;69.87
55347;BME280;41218;55.700;38.270;2023-04-29T04:25:53;99693.03;;;3.33;70.17
55347;BME280;41218;55.700;38.270;2023-04-29T04:30:53;99701.69;;;3.35;70.03
55347;BME280;41218;55.700;38.270;2023-04-29T04:35:54;99705.53;;;3.34;70.07
55347;BME280;41218;55.700;38.270;2023-04-29T04:40:57;99693.16;;;3.28;69.70
55347;BME280;41218;55.700;38.270;2023-04-29T04:45:58;99688.22;;;3.12;69.80
55347;BME280;41218;55.700;38.270;2023-04-29T04:50:58;99680.81;;;3.13;69.73
55347;BME280;41218;55.700;38.270;2023-04-29T04:56:02;99694.16;;;3.14;70.06
55347;BME280;41218;55.700;38.270;2023-04-29T05:01:03;99680.97;;;2.99;69.78
55347;BME280;41218;55.700;38.270;2023-04-29T05:06:04;99700.56;;;3.10;69.82
55347;BME280;41218;55.700;38.270;2023-04-29T05:11:23;99692.06;;;3.11;69.93
55347;BME280;41218;55.700;38.270;2023-04-29T05:16:24;99693.66;;;3.04;69.57
55347;BME280;41218;55.700;38.270;2023-04-29T05:21:25;99691.72;;;3.04;69.79
55347;BME280;41218;55.700;38.270;2023-04-29T05:26:25;99694.13;;;2.97;69.66
55347;BME280;41218;55.700;38.270;2023-04-29T05:31:26;99701.84;;;2.95;69.93
55347;BME280;41218;55.700;38.270;2023-04-29T05:36:27;99702.63;;;2.95;69.65
55347;BME280;41218;55.700;38.270;2023-04-29T05:41:28;99711.31;;;2.97;70.09
55347;BME280;41218;55.700;38.270;2023-04-29T05:46:28;99718.06;;;3.00;70.06
55347;BME280;41218;55.700;38.270;2023-04-29T05:51:29;99729.94;;;3.04;70.14
55347;BME280;41218;55.700;38.270;2023-04-29T05:56:30;99733.16;;;3.06;70.05
55347;BME280;41218;55.700;38.270;2023-04-29T06:01:31;99742.84;;;3.12;70.16
55347;BME280;41218;55.700;38.270;2023-04-29T06:06:33;99740.59;;;3.14;70.07
55347;BME280;41218;55.700;38.270;2023-04-29T06:11:33;99751.66;;;3.18;70.25
55347;BME280;41218;55.700;38.270;2023-04-29T06:16:34;99756.81;;;3.19;70.45
55347;BME280;41218;55.700;38.270;2023-04-29T06:21:35;99761.28;;;3.24;70.25
55347;BME280;41218;55.700;38.270;2023-04-29T06:26:35;99766.31;;;3.31;70.65
55347;BME280;41218;55.700;38.270;2023-04-29T06:31:36;99761.81;;;3.35;70.43
55347;BME280;41218;55.700;38.270;2023-04-29T06:36:37;99774.19;;;3.41;70.92
55347;BME280;41218;55.700;38.270;2023-04-29T06:41:38;99776.41;;;3.48;70.95
55347;BME280;41218;55.700;38.270;2023-04-29T06:46:40;99780.13;;;3.43;71.02
55347;BME280;41218;55.700;38.270;2023-04-29T06:51:40;99797.78;;;3.54;71.00
55347;BME280;41218;55.700;38.270;2023-04-29T06:56:42;99819.66;;;3.72;70.76
55347;BME280;41218;55.700;38.270;2023-04-29T07:01:42;99838.63;;;3.77;70.81
55347;BME280;41218;55.700;38.270;2023-04-29T07:06:43;99838.78;;;3.80;71.08
55347;BME280;41218;55.700;38.270;2023-04-29T07:11:46;99840.56;;;3.85;71.42
55347;BME280;41218;55.700;38.270;2023-04-29T07:16:46;99840.38;;;3.99;71.54
55347;BME280;41218;55.700;38.270;2023-04-29T07:21:47;99857.13;;;4.06;71.41
55347;BME280;41218;55.700;38.270;2023-04-29T07:26:47;99863.06;;;4.17;71.59
55347;BME280;41218;55.700;38.270;2023-04-29T07:31:48;99874.47;;;4.28;71.66
55347;BME280;41218;55.700;38.270;2023-04-29T07:36:49;99873.63;;;4.36;71.78
55347;BME280;41218;55.700;38.270;2023-04-29T07:41:49;99863.66;;;4.49;71.83
55347;BME280;41218;55.700;38.270;2023-04-29T07:46:51;99884.06;;;4.60;71.45
55347;BME280;41218;55.700;38.270;2023-04-29T07:51:51;99908.03;;;4.72;71.46
55347;BME280;41218;55.700;38.270;2023-04-29T07:56:52;99905.13;;;4.77;71.76
55347;BME280;41218;55.700;38.270;2023-04-29T08:01:52;99906.84;;;4.90;71.85
55347;BME280;41218;55.700;38.270;2023-04-29T08:06:53;99915.97;;;5.03;72.14
55347;BME280;41218;55.700;38.270;2023-04-29T08:11:53;99917.84;;;5.20;71.53
55347;BME280;41218;55.700;38.270;2023-04-29T08:16:54;99915.53;;;5.31;71.70
55347;BME280;41218;55.700;38.270;2023-04-29T08:21:54;99932.69;;;5.49;71.55
55347;BME280;41218;55.700;38.270;2023-04-29T08:26:55;99924.41;;;5.57;71.42
55347;BME280;41218;55.700;38.270;2023-04-29T08:31:55;99920.44;;;5.76;71.46
55347;BME280;41218;55.700;38.270;2023-04-29T08:36:56;99936.75;;;5.93;71.15
55347;BME280;41218;55.700;38.270;2023-04-29T08:41:57;99934.44;;;6.04;71.01
55347;BME280;41218;55.700;38.270;2023-04-29T08:46:58;99946.63;;;6.15;70.74
55347;BME280;41218;55.700;38.270;2023-04-29T08:52:00;99942.88;;;6.20;70.78
55347;BME280;41218;55.700;38.270;2023-04-29T08:57:02;99954.13;;;6.27;70.69
55347;BME280;41218;55.700;38.270;2023-04-29T09:02:10;99953.84;;;6.41;70.52
55347;BME280;41218;55.700;38.270;2023-04-29T09:07:16;99957.47;;;6.66;70.69
55347;BME280;41218;55.700;38.270;2023-04-29T09:12:17;99957.06;;;6.89;70.21
55347;BME280;41218;55.700;38.270;2023-04-29T09:17:17;99960.19;;;6.99;69.69
55347;BME280;41218;55.700;38.270;2023-04-29T09:22:25;99969.84;;;7.06;69.64
55347;BME280;41218;55.700;38.270;2023-04-29T09:27:46;99978.09;;;7.18;69.47
55347;BME280;41218;55.700;38.270;2023-04-29T09:33:07;99974.22;;;7.31;69.49
55347;BME280;41218;55.700;38.270;2023-04-29T09:38:12;99981.91;;;7.50;69.07
55347;BME280;41218;55.700;38.270;2023-04-29T09:43:14;99992.56;;;7.64;68.60
55347;BME280;41218;55.700;38.270;2023-04-29T09:48:15;99969.09;;;7.67;68.60
55347;BME280;41218;55.700;38.270;2023-04-29T09:53:28;99983.84;;;7.99;67.80
55347;BME280;41218;55.700;38.270;2023-04-29T09:58:33;100004.03;;;8.03;67.90
55347;BME280;41218;55.700;38.270;2023-04-29T10:03:37;100002.63;;;8.09;67.74
55347;BME280;41218;55.700;38.270;2023-04-29T10:08:38;99998.00;;;8.26;66.97
55347;BME280;41218;55.700;38.270;2023-04-29T10:13:41;100017.59;;;8.36;66.60
55347;BME280;41218;55.700;38.270;2023-04-29T10:18:48;100013.94;;;8.45;65.69
55347;BME280;41218;55.700;38.270;2023-04-29T10:23:53;100017.75;;;8.68;65.98
55347;BME280;41218;55.700;38.270;2023-04-29T10:28:55;100029.22;;;8.98;65.22
55347;BME280;41218;55.700;38.270;2023-04-29T10:33:57;100018.66;;;9.16;65.05
55347;BME280;41218;55.700;38.270;2023-04-29T10:38:59;100025.88;;;9.21;63.76
55347;BME280;41218;55.700;38.270;2023-04-29T10:44:01;100036.47;;;9.19;63.24
55347;BME280;41218;55.700;38.270;2023-04-29T10:49:04;100022.47;;;9.12;63.41
55347;BME280;41218;55.700;38.270;2023-04-29T10:54:08;100028.81;;;9.28;62.53
55347;BME280;41218;55.700;38.270;2023-04-29T10:59:14;100030.78;;;9.28;61.70
55347;BME280;41218;55.700;38.270;2023-04-29T11:04:16;100022.22;;;9.17;61.16
55347;BME280;41218;55.700;38.270;2023-04-29T11:09:24;100043.91;;;9.18;60.50
55347;BME280;41218;55.700;38.270;2023-04-29T11:14:29;100053.19;;;9.26;61.04
55347;BME280;41218;55.700;38.270;2023-04-29T11:19:32;100046.56;;;9.43;60.59
55347;BME280;41218;55.700;38.270;2023-04-29T11:24:33;100052.34;;;9.54;59.69
55347;BME280;41218;55.700;38.270;2023-04-29T11:29:35;100057.56;;;9.59;59.39
55347;BME280;41218;55.700;38.270;2023-04-29T11:34:35;100042.44;;;9.69;59.12
55347;BME280;41218;55.700;38.270;2023-04-29T11:39:36;100021.19;;;9.69;58.46
55347;BME280;41218;55.700;38.270;2023-04-29T11:44:36;100034.34;;;9.92;58.32
55347;BME280;41218;55.700;38.270;2023-04-29T11:49:37;100054.44;;;10.08;57.77
55347;BME280;41218;55.700;38.270;2023-04-29T11:54:40;100043.00;;;10.26;56.23
55347;BME280;41218;55.700;38.270;2023-04-29T11:59:41;100029.94;;;10.42;56.19
55347;BME280;41218;55.700;38.270;2023-04-29T12:04:47;100041.03;;;10.61;54.88
55347;BME280;41218;55.700;38.270;2023-04-29T12:09:48;100036.25;;;10.58;53.40
55347;BME280;41218;55.700;38.270;2023-04-29T12:14:49;100041.13;;;10.65;53.41
55347;BME280;41218;55.700;38.270;2023-04-29T12:19:50;100036.31;;;10.62;52.56
55347;BME280;41218;55.700;38.270;2023-04-29T12:24:51;100046.91;;;10.60;52.82
55347;BME280;41218;55.700;38.270;2023-04-29T12:29:53;100043.00;;;10.61;53.21
55347;BME280;41218;55.700;38.270;2023-04-29T12:34:54;100020.00;;;10.76;53.21
55347;BME280;41218;55.700;38.270;2023-04-29T12:39:54;100029.09;;;10.96;52.54
55347;BME280;41218;55.700;38.270;2023-04-29T12:44:55;100034.53;;;11.12;52.21
55347;BME280;41218;55.700;38.270;2023-04-29T12:49:56;100024.50;;;11.27;50.75
55347;BME280;41218;55.700;38.270;2023-04-29T12:54:56;100021.78;;;11.50;50.65
55347;BME280;41218;55.700;38.270;2023-04-29T12:59:57;100026.50;;;11.73;50.32
55347;BME280;41218;55.700;38.270;2023-04-29T13:04:57;100029.47;;;11.87;49.87
55347;BME280;41218;55.700;38.270;2023-04-29T13:09:58;100007.50;;;11.98;49.59
55347;BME280;41218;55.700;38.270;2023-04-29T13:14:58;100019.22;;;12.14;49.13
55347;BME280;41218;55.700;38.270;2023-04-29T13:19:59;100024.88;;;12.21;49.02
55347;BME280;41218;55.700;38.270;2023-04-29T13:24:59;100029.78;;;12.32;48.75
55347;BME280;41218;55.700;38.270;2023-04-29T13:30:00;100029.91;;;12.42;48.79
55347;BME280;41218;55.700;38.270;2023-04-29T13:35:01;100028.41;;;12.49;47.84
55347;BME280;41218;55.700;38.270;2023-04-29T13:40:03;100024.41;;;12.46;46.88
55347;BME280;41218;55.700;38.270;2023-04-29T13:45:06;100030.50;;;12.55;46.81
55347;BME280;41218;55.700;38.270;2023-04-29T13:50:08;100043.50;;;12.51;46.92
55347;BME280;41218;55.700;38.270;2023-04-29T13:55:08;100027.28;;;12.53;47.24
55347;BME280;41218;55.700;38.270;2023-04-29T14:00:09;100025.69;;;12.52;47.17
55347;BME280;41218;55.700;38.270;2023-04-29T14:05:10;100018.94;;;12.50;48.04
55347;BME280;41218;55.700;38.270;2023-04-29T14:10:10;100023.00;;;12.29;47.77
55347;BME280;41218;55.700;38.270;2023-04-29T14:15:11;100028.38;;;12.18;47.99
55347;BME280;41218;55.700;38.270;2023-04-29T14:20:12;100035.41;;;12.12;48.05
55347;BME280;41218;55.700;38.270;2023-04-29T14:25:12;100039.31;;;12.08;47.96
55347;BME280;41218;55.700;38.270;2023-04-29T14:30:13;100037.72;;;12.07;48.04
55347;BME280;41218;55.700;38.270;2023-04-29T14:35:13;100039.25;;;12.04;47.82
55347;BME280;41218;55.700;38.270;2023-04-29T14:40:14;100029.38;;;12.03;48.17
55347;BME280;41218;55.700;38.270;2023-04-29T14:45:15;100039.31;;;12.08;48.43
55347;BME280;41218;55.700;38.270;2023-04-29T14:50:16;100022.75;;;12.11;47.99
55347;BME280;41218;55.700;38.270;2023-04-29T14:55:17;100022.34;;;12.09;47.99
55347;BME280;41218;55.700;38.270;2023-04-29T15:00:18;100035.75;;;12.07;47.75
55347;BME280;41218;55.700;38.270;2023-04-29T15:05:18;100029.44;;;12.07;48.01
55347;BME280;41218;55.700;38.270;2023-04-29T15:10:19;100027.75;;;12.02;48.11
55347;BME280;41218;55.700;38.270;2023-04-29T15:15:20;100027.28;;;11.96;48.05
55347;BME280;41218;55.700;38.270;2023-04-29T15:20:21;100031.09;;;11.88;47.59
55347;BME280;41218;55.700;38.270;2023-04-29T15:25:22;100041.69;;;11.82;47.78
55347;BME280;41218;55.700;38.270;2023-04-29T15:30:22;100040.44;;;11.80;47.74
55347;BME280;41218;55.700;38.270;2023-04-29T15:35:23;100027.19;;;11.66;47.53
55347;BME280;41218;55.700;38.270;2023-04-29T15:40:23;100034.38;;;11.71;47.81
55347;BME280;41218;55.700;38.270;2023-04-29T15:45:25;100029.44;;;11.60;47.60
55347;BME280;41218;55.700;38.270;2023-04-29T15:50:25;100036.53;;;11.58;47.55
55347;BME280;41218;55.700;38.270;2023-04-29T15:55:26;100032.34;;;11.45;48.20
55347;BME280;41218;55.700;38.270;2023-04-29T16:00:26;100042.56;;;11.40;48.86
55347;BME280;41218;55.700;38.270;2023-04-29T16:05:27;100047.59;;;11.35;49.28
55347;BME280;41218;55.700;38.270;2023-04-29T16:10:28;100047.41;;;11.24;50.12
55347;BME280;41218;55.700;38.270;2023-04-29T16:15:28;100055.19;;;11.18;50.33
55347;BME280;41218;55.700;38.270;2023-04-29T16:20:29;100066.41;;;11.06;50.96
55347;BME280;41218;55.700;38.270;2023-04-29T16:25:29;100069.00;;;10.95;51.48
55347;BME280;41218;55.700;38.270;2023-04-29T16:30:30;100072.63;;;10.80;51.68
55347;BME280;41218;55.700;38.270;2023-04-29T16:35:30;100070.34;;;10.66;52.32
55347;BME280;41218;55.700;38.270;2023-04-29T16:40:31;100074.34;;;10.49;52.60
55347;BME280;41218;55.700;38.270;2023-04-29T16:45:31;100080.34;;;10.35;53.01
55347;BME280;41218;55.700;38.270;2023-04-29T16:50:32;100083.19;;;10.23;53.40
55347;BME280;41218;55.700;38.270;2023-04-29T16:55:35;100082.97;;;9.96;53.58
55347;BME280;41218;55.700;38.270;2023-04-29T17:00:36;100098.28;;;9.94;54.09
55347;BME280;41218;55.700;38.270;2023-04-29T17:05:37;100103.38;;;9.76;54.63
55347;BME280;41218;55.700;38.270;2023-04-29T17:10:37;100115.19;;;9.60;54.72
55347;BME280;41218;55.700;38.270;2023-04-29T17:15:38;100102.53;;;9.43;55.14
55347;BME280;41218;55.700;38.270;2023-04-29T17:20:39;100120.59;;;9.41;55.10
55347;BME280;41218;55.700;38.270;2023-04-29T17:25:41;100117.91;;;9.29;55.36
55347;BME280;41218;55.700;38.270;2023-04-29T17:30:41;100123.09;;;9.18;55.41
55347;BME280;41218;55.700;38.270;2023-04-29T17:35:42;100131.88;;;9.08;55.56
55347;BME280;41218;55.700;38.270;2023-04-29T17:40:43;100134.13;;;8.90;55.64
55347;BME280;41218;55.700;38.270;2023-04-29T17:45:44;100142.06;;;8.79;55.96
55347;BME280;41218;55.700;38.270;2023-04-29T17:50:45;100148.75;;;8.66;55.99
55347;BME280;41218;55.700;38.270;2023-04-29T17:55:46;100145.94;;;8.50;56.16
55347;BME280;41218;55.700;38.270;2023-04-29T18:00:46;100160.13;;;8.39;56.45
55347;BME280;41218;55.700;38.270;2023-04-29T18:05:48;100160.13;;;8.27;56.65
55347;BME280;41218;55.700;38.270;2023-04-29T18:10:49;100168.75;;;8.13;56.60
55347;BME280;41218;55.700;38.270;2023-04-29T18:15:49;100158.06;;;7.99;56.61
55347;BME280;41218;55.700;38.270;2023-04-29T18:20:50;100161.72;;;7.91;56.79
55347;BME280;41218;55.700;38.270;2023-04-29T18:25:51;100168.00;;;7.79;56.74
55347;BME280;41218;55.700;38.270;2023-04-29T18:30:51;100173.81;;;7.66;57.10
55347;BME280;41218;55.700;38.270;2023-04-29T18:35:52;100178.25;;;7.58;57.11
55347;BME280;41218;55.700;38.270;2023-04-29T18:40:53;100172.63;;;7.54;56.90
55347;BME280;41218;55.700;38.270;2023-04-29T18:45:55;100179.88;;;7.38;56.86
55347;BME280;41218;55.700;38.270;2023-04-29T18:50:56;100198.28;;;7.25;57.23
55347;BME280;41218;55.700;38.270;2023-04-29T18:56:03;100210.03;;;7.13;57.50
55347;BME280;41218;55.700;38.270;2023-04-29T19:01:03;100219.03;;;7.01;57.46
55347;BME280;41218;55.700;38.270;2023-04-29T19:06:04;100211.03;;;6.88;57.52
55347;BME280;41218;55.700;38.270;2023-04-29T19:11:05;100232.06;;;6.84;57.74
55347;BME280;41218;55.700;38.270;2023-04-29T19:16:05;100231.16;;;6.71;57.70
55347;BME280;41218;55.700;38.270;2023-04-29T19:21:06;100240.59;;;6.61;57.88
55347;BME280;41218;55.700;38.270;2023-04-29T19:26:07;100236.63;;;6.50;58.16
55347;BME280;41218;55.700;38.270;2023-04-29T19:31:07;100246.81;;;6.40;58.10
55347;BME280;41218;55.700;38.270;2023-04-29T19:36:09;100258.16;;;6.30;58.17
55347;BME280;41218;55.700;38.270;2023-04-29T19:41:12;100259.34;;;6.20;58.41
55347;BME280;41218;55.700;38.270;2023-04-29T19:46:12;100255.97;;;6.15;58.34
55347;BME280;41218;55.700;38.270;2023-04-29T19:51:13;100260.03;;;6.09;58.16
55347;BME280;41218;55.700;38.270;2023-04-29T19:56:14;100251.00;;;5.99;58.51
55347;BME280;41218;55.700;38.270;2023-04-29T20:01:15;100254.06;;;5.89;58.36
55347;BME280;41218;55.700;38.270;2023-04-29T20:06:16;100247.78;;;5.80;58.72
55347;BME280;41218;55.700;38.270;2023-04-29T20:11:16;100242.66;;;5.70;58.60
55347;BME280;41218;55.700;38.270;2023-04-29T20:16:17;100250.06;;;5.60;58.88
55347;BME280;41218;55.700;38.270;2023-04-29T20:21:17;100264.59;;;5.52;59.03
55347;BME280;41218;55.700;38.270;2023-04-29T20:26:18;100259.91;;;5.44;59.11
55347;BME280;41218;55.700;38.270;2023-04-29T20:31:19;100261.22;;;5.38;58.88
55347;BME280;41218;55.700;38.270;2023-04-29T20:36:19;100260.56;;;5.32;58.86
55347;BME280;41218;55.700;38.270;2023-04-29T20:41:20;100261.69;;;5.22;59.01
55347;BME280;41218;55.700;38.270;2023-04-29T20:46:21;100277.47;;;5.17;59.41
55347;BME280;41218;55.700;38.270;2023-04-29T20:51:21;100272.78;;;5.09;58.96
55347;BME280;41218;55.700;38.270;2023-04-29T20:56:22;100269.53;;;4.98;59.05
55347;BME280;41218;55.700;38.270;2023-04-29T21:01:23;100269.53;;;4.89;58.98
55347;BME280;41218;55.700;38.270;2023-04-29T21:06:26;100268.69;;;4.80;59.49
55347;BME280;41218;55.700;38.270;2023-04-29T21:11:27;100268.22;;;4.78;59.50
55347;BME280;41218;55.700;38.270;2023-04-29T21:16:27;100269.78;;;4.70;59.20
55347;BME280;41218;55.700;38.270;2023-04-29T21:21:28;100259.28;;;4.55;59.27
55347;BME280;41218;55.700;38.270;2023-04-29T21:26:30;100271.03;;;4.55;59.47
55347;BME280;41218;55.700;38.270;2023-04-29T21:31:31;100268.09;;;4.43;59.42
55347;BME280;41218;55.700;38.270;2023-04-29T21:36:31;100275.13;;;4.35;59.44
55347;BME280;41218;55.700;38.270;2023-04-29T21:41:34;100275.91;;;4.27;59.69
55347;BME280;41218;55.700;38.270;2023-04-29T21:46:38;100272.34;;;4.18;59.46
55347;BME280;41218;55.700;38.270;2023-04-29T21:51:39;100268.94;;;4.12;59.68
55347;BME280;41218;55.700;38.270;2023-04-29T21:56:40;100265.81;;;4.05;59.58
55347;BME280;41218;55.700;38.270;2023-04-29T22:01:41;100261.94;;;3.97;59.37
55347;BME280;41218;55.700;38.270;2023-04-29T22:06:44;100258.03;;;3.90;59.83
55347;BME280;41218;55.700;38.270;2023-04-29T22:11:45;100251.19;;;3.78;59.46
55347;BME280;41218;55.700;38.270;2023-04-29T22:16:45;100251.94;;;3.70;59.44
55347;BME280;41218;55.700;38.270;2023-04-29T22:21:46;100254.81;;;3.65;59.88
55347;BME280;41218;55.700;38.270;2023-04-29T22:26:46;100253.63;;;3.57;59.64
55347;BME280;41218;55.700;38.270;2023-04-29T22:31:47;100259.19;;;3.52;59.53
55347;BME280;41218;55.700;38.270;2023-04-29T22:36:47;100256.59;;;3.47;59.82
55347;BME280;41218;55.700;38.270;2023-04-29T22:41:48;100247.50;;;3.38;59.92
55347;BME280;41218;55.700;38.270;2023-04-29T22:46:48;100251.47;;;3.32;59.68
55347;BME280;41218;55.700;38.270;2023-04-29T22:51:49;100241.94;;;3.20;59.92
55347;BME280;41218;55.700;38.270;2023-04-29T22:56:50;100245.47;;;3.21;60.12
55347;BME280;41218;55.700;38.270;2023-04-29T23:01:50;100234.38;;;3.04;59.99
55347;BME280;41218;55.700;38.270;2023-04-29T23:06:51;100222.47;;;2.86;60.03
55347;BME280;41218;55.700;38.270;2023-04-29T23:11:51;100245.22;;;2.95;60.41
55347;BME280;41218;55.700;38.270;2023-04-29T23:16:52;100240.69;;;2.90;60.20
55347;BME280;41218;55.700;38.270;2023-04-29T23:21:53;100238.03;;;2.85;60.12
55347;BME280;41218;55.700;38.270;2023-04-29T23:26:53;100234.63;;;2.79;60.48
55347;BME280;41218;55.700;38.270;2023-04-29T23:31:54;100225.63;;;2.65;60.33
55347;BME280;41218;55.700;38.270;2023-04-29T23:36:54;100235.97;;;2.68;60.27
55347;BME280;41218;55.700;38.270;2023-04-29T23:41:55;100235.03;;;2.59;60.28
55347;BME280;41218;55.700;38.270;2023-04-29T23:46:55;100237.78;;;2.59;60.21
55347;BME280;41218;55.700;38.270;2023-04-29T23:51:56;100241.41;;;2.54;60.32
55347;BME280;41218;55.700;38.270;2023-04-29T23:56:56;100238.78;;;2.49;60.48
